createdAt,value
2023-02-06T00:01:37.556Z,83.23
2023-02-06T00:03:41.136Z,83.51
2023-02-06T00:05:44.480Z,83.12
2023-02-06T00:07:47.761Z,83.18
2023-02-06T00:09:51.108Z,83.70
2023-02-06T00:11:54.424Z,83.97
2023-02-06T00:13:57.728Z,84.33
2023-02-06T00:16:01.428Z,84.44
2023-02-06T00:18:06.291Z,84.07
2023-02-06T00:20:11.420Z,84.93
2023-02-06T00:22:14.690Z,85.11
2023-02-06T00:24:18.013Z,85.06
2023-02-06T00:26:22.040Z,84.58
2023-02-06T00:28:25.289Z,84.68
2023-02-06T00:30:28.752Z,85.06
2023-02-06T00:32:32.213Z,84.62
2023-02-06T00:34:37.693Z,84.97
2023-02-06T00:36:42.798Z,84.52
2023-02-06T00:38:46.163Z,84.79
2023-02-06T00:40:50.609Z,85.27
2023-02-06T00:42:54.058Z,85.09
2023-02-06T00:44:57.464Z,85.21
2023-02-06T00:47:00.812Z,85.01
2023-02-06T00:49:04.931Z,85.42
2023-02-06T00:51:09.692Z,85.14
2023-02-06T00:53:13.570Z,85.62
2023-02-06T00:55:17.413Z,85.38
2023-02-06T00:57:20.778Z,86.13
2023-02-06T00:59:24.215Z,85.18
2023-02-06T01:01:28.162Z,85.01
2023-02-06T01:03:31.666Z,84.86
2023-02-06T01:05:35.417Z,85.00
2023-02-06T01:07:41.291Z,84.70
2023-02-06T01:09:44.863Z,85.20
2023-02-06T01:11:48.676Z,84.72
2023-02-06T01:13:52.384Z,84.39
2023-02-06T01:15:55.780Z,84.67
2023-02-06T01:17:59.553Z,84.35
2023-02-06T01:20:03.284Z,84.57
2023-02-06T01:22:07.833Z,83.85
2023-02-06T01:24:12.502Z,83.81
2023-02-06T01:26:19.081Z,83.70
2023-02-06T01:28:22.459Z,83.37
2023-02-06T01:30:26.197Z,83.43
2023-02-06T01:32:29.563Z,83.08
2023-02-06T01:34:32.930Z,83.31
2023-02-06T01:36:38.043Z,83.18
2023-02-06T01:38:41.938Z,83.01
2023-02-06T01:40:46.819Z,82.81
2023-02-06T01:42:50.148Z,83.36
2023-02-06T01:45:41.304Z,83.55
2023-02-06T01:47:44.930Z,82.78
2023-02-06T01:49:52.053Z,83.06
2023-02-06T01:52:00.369Z,83.55
2023-02-06T01:54:07.447Z,83.41
2023-02-06T01:56:13.241Z,82.88
2023-02-06T01:58:20.612Z,82.98
2023-02-06T02:00:24.439Z,82.98
2023-02-06T02:02:29.845Z,82.76
2023-02-06T02:04:34.851Z,83.23
2023-02-06T02:06:41.426Z,82.77
2023-02-06T02:08:47.501Z,82.88
2023-02-06T02:10:51.047Z,82.77
2023-02-06T02:12:55.802Z,82.78
2023-02-06T02:15:00.305Z,82.75
2023-02-06T02:17:20.523Z,83.21
2023-02-06T02:20:15.049Z,83.57
2023-02-06T02:22:41.000Z,82.70
2023-02-06T02:25:04.781Z,82.47
2023-02-06T02:27:37.984Z,82.55
2023-02-06T02:30:18.678Z,83.04
2023-02-06T02:32:58.438Z,83.07
2023-02-06T02:35:10.491Z,83.22
2023-02-06T02:37:26.615Z,84.01
2023-02-06T02:39:39.243Z,83.48
2023-02-06T02:41:50.066Z,83.29
2023-02-06T02:44:03.082Z,82.91
2023-02-06T02:46:14.313Z,83.08
2023-02-06T02:48:24.308Z,83.54
2023-02-06T02:50:30.368Z,82.92
2023-02-06T02:52:34.370Z,83.36
2023-02-06T02:54:37.966Z,83.34
2023-02-06T02:56:41.940Z,83.11
2023-02-06T02:58:48.857Z,83.07
2023-02-06T03:00:58.683Z,83.59
2023-02-06T03:03:02.366Z,82.87
2023-02-06T03:05:09.087Z,83.68
2023-02-06T03:07:29.641Z,83.73
2023-02-06T03:09:46.278Z,83.12
2023-02-06T03:12:00.608Z,83.63
2023-02-06T03:14:11.556Z,82.91
2023-02-06T03:16:24.853Z,83.57
2023-02-06T03:18:35.773Z,83.17
2023-02-06T03:20:44.040Z,83.21
2023-02-06T03:22:51.614Z,83.31
2023-02-06T03:25:00.135Z,83.44
2023-02-06T03:27:06.199Z,82.88
2023-02-06T03:29:13.167Z,83.62
2023-02-06T03:31:21.544Z,83.46
2023-02-06T03:33:31.517Z,83.76
2023-02-06T03:35:38.344Z,82.93
2023-02-06T03:37:41.961Z,83.39
2023-02-06T03:39:47.049Z,83.66
2023-02-06T03:41:52.334Z,82.83
2023-02-06T03:43:57.869Z,83.00
2023-02-06T03:46:05.194Z,82.70
2023-02-06T03:48:16.211Z,83.11
2023-02-06T03:50:20.485Z,83.28
2023-02-06T03:52:27.937Z,82.68
2023-02-06T03:54:33.417Z,83.63
2023-02-06T03:56:44.382Z,83.26
2023-02-06T03:58:48.759Z,83.04
2023-02-06T04:00:53.029Z,83.81
2023-02-06T04:02:57.954Z,82.97
2023-02-06T04:05:01.357Z,83.54
2023-02-06T04:07:12.799Z,82.97
2023-02-06T04:09:16.453Z,83.61
2023-02-06T04:11:19.982Z,83.17
2023-02-06T04:13:24.832Z,83.38
2023-02-06T04:15:28.558Z,82.83
2023-02-06T04:17:46.334Z,82.89
2023-02-06T04:19:55.524Z,83.05
2023-02-06T04:21:58.949Z,82.71
2023-02-06T04:24:02.347Z,82.57
2023-02-06T04:26:05.926Z,83.49
2023-02-06T04:28:09.787Z,83.89
2023-02-06T04:30:15.686Z,83.32
2023-02-06T04:32:21.417Z,83.39
2023-02-06T04:34:24.954Z,83.25
2023-02-06T04:36:28.392Z,82.82
2023-02-06T04:38:32.401Z,83.40
2023-02-06T04:40:35.711Z,83.35
2023-02-06T04:42:39.314Z,83.16
2023-02-06T04:44:43.639Z,83.11
2023-02-06T04:46:48.613Z,83.11
2023-02-06T04:48:52.269Z,83.52
2023-02-06T04:50:56.305Z,83.78
2023-02-06T04:52:59.818Z,83.22
2023-02-06T04:55:03.425Z,83.59
2023-02-06T04:57:06.803Z,83.98
2023-02-06T04:59:11.062Z,84.33
2023-02-06T05:01:16.715Z,83.96
2023-02-06T05:03:23.648Z,83.89
2023-02-06T05:05:27.195Z,83.80
2023-02-06T05:07:30.544Z,83.67
2023-02-06T05:09:33.874Z,84.08
2023-02-06T05:11:37.343Z,83.85
2023-02-06T05:13:40.837Z,84.42
2023-02-06T05:15:44.221Z,84.75
2023-02-06T05:17:47.535Z,83.95
2023-02-06T05:19:52.341Z,84.39
2023-02-06T05:21:55.878Z,83.94
2023-02-06T05:23:59.204Z,84.22
2023-02-06T05:26:03.136Z,84.41
2023-02-06T05:28:07.432Z,84.52
2023-02-06T05:30:12.593Z,84.21
2023-02-06T05:32:19.325Z,84.22
2023-02-06T05:34:23.296Z,84.74
2023-02-06T05:36:29.144Z,84.77
2023-02-06T05:38:35.023Z,84.72
2023-02-06T05:40:38.359Z,84.51
2023-02-06T05:42:41.836Z,84.59
2023-02-06T05:44:45.506Z,85.07
2023-02-06T05:46:49.324Z,84.98
2023-02-06T05:48:53.854Z,84.91
2023-02-06T05:50:58.412Z,84.98
2023-02-06T05:53:03.273Z,85.19
2023-02-06T05:55:08.085Z,85.46
2023-02-06T05:57:11.740Z,84.79
2023-02-06T05:59:16.206Z,85.36
2023-02-06T06:01:19.635Z,85.10
2023-02-06T06:03:22.953Z,85.85
2023-02-06T06:05:26.320Z,85.30
2023-02-06T06:07:29.843Z,85.59
2023-02-06T06:09:34.620Z,86.11
2023-02-06T06:11:38.174Z,86.33
2023-02-06T06:13:41.861Z,86.57
2023-02-06T06:15:45.299Z,85.61
2023-02-06T06:17:48.962Z,85.93
2023-02-06T06:19:52.405Z,86.15
2023-02-06T06:21:58.182Z,86.73
2023-02-06T06:24:02.501Z,85.70
2023-02-06T06:26:07.391Z,85.85
2023-02-06T06:28:11.496Z,86.93
2023-02-06T06:30:15.400Z,85.85
2023-02-06T06:32:18.951Z,86.21
2023-02-06T06:34:22.819Z,87.01
2023-02-06T06:36:26.323Z,86.31
2023-02-06T06:38:29.688Z,86.50
2023-02-06T06:40:33.073Z,86.38
2023-02-06T06:42:37.810Z,86.24
2023-02-06T06:44:41.529Z,86.90
2023-02-06T06:46:44.900Z,86.95
2023-02-06T06:48:48.397Z,86.62
2023-02-06T06:50:51.796Z,86.13
2023-02-06T06:52:55.161Z,85.81
2023-02-06T06:54:59.150Z,86.30
2023-02-06T06:57:02.676Z,86.96
2023-02-06T06:59:07.696Z,87.07
2023-02-06T07:01:11.443Z,87.04
2023-02-06T07:03:14.879Z,86.80
2023-02-06T07:05:18.560Z,86.90
2023-02-06T07:07:22.440Z,87.02
2023-02-06T07:09:25.956Z,86.90
2023-02-06T07:11:29.348Z,86.62
2023-02-06T07:13:32.739Z,86.83
2023-02-06T07:15:37.842Z,86.75
2023-02-06T07:17:41.889Z,87.17
2023-02-06T07:19:48.067Z,86.80
2023-02-06T07:21:51.726Z,98.64
2023-02-06T07:23:55.075Z,100.00
2023-02-06T07:26:02.243Z,97.46
2023-02-06T07:28:06.515Z,92.25
2023-02-06T07:30:11.131Z,91.09
2023-02-06T07:32:19.073Z,90.57
2023-02-06T07:34:22.520Z,90.71
2023-02-06T07:36:26.095Z,90.79
2023-02-06T07:38:29.518Z,90.48
2023-02-06T07:40:44.779Z,90.15
2023-02-06T07:42:53.765Z,89.73
2023-02-06T07:45:02.226Z,89.78
2023-02-06T07:47:05.799Z,89.77
2023-02-06T07:49:12.779Z,88.78
2023-02-06T07:51:16.072Z,88.31
2023-02-06T07:53:19.572Z,88.88
2023-02-06T07:55:22.989Z,88.01
2023-02-06T07:57:26.633Z,87.87
2023-02-06T07:59:30.238Z,87.83
2023-02-06T08:01:37.150Z,87.70
2023-02-06T08:03:42.749Z,88.39
2023-02-06T08:05:48.157Z,87.54
2023-02-06T08:07:51.721Z,87.80
2023-02-06T08:09:55.162Z,87.34
2023-02-06T08:12:00.112Z,87.55
2023-02-06T08:14:04.476Z,87.47
2023-02-06T08:16:11.128Z,88.01
2023-02-06T08:18:14.514Z,87.62
2023-02-06T08:20:18.312Z,87.95
2023-02-06T08:22:23.103Z,88.02
2023-02-06T08:24:26.661Z,87.45
2023-02-06T08:26:31.388Z,86.74
2023-02-06T08:28:36.541Z,87.19
2023-02-06T08:30:40.130Z,88.03
2023-02-06T08:32:44.070Z,87.66
2023-02-06T08:34:48.084Z,87.14
2023-02-06T08:36:51.410Z,86.91
2023-02-06T08:38:56.365Z,86.91
2023-02-06T08:41:00.287Z,87.01
2023-02-06T08:43:04.269Z,87.00
2023-02-06T08:45:08.482Z,86.72
2023-02-06T08:47:11.860Z,87.25
2023-02-06T08:49:20.005Z,86.59
2023-02-06T08:51:23.577Z,86.60
2023-02-06T08:53:27.645Z,86.77
2023-02-06T08:55:32.444Z,87.21
2023-02-06T08:57:35.912Z,86.86
2023-02-06T08:59:39.446Z,86.57
2023-02-06T09:01:45.353Z,86.08
2023-02-06T09:03:49.353Z,85.79
2023-02-06T09:05:54.124Z,86.02
2023-02-06T09:07:59.377Z,85.86
2023-02-06T09:10:02.724Z,86.61
2023-02-06T09:12:07.675Z,85.49
2023-02-06T09:14:15.431Z,85.63
2023-02-06T09:16:21.332Z,86.09
2023-02-06T09:18:24.753Z,85.96
2023-02-06T09:20:28.419Z,85.16
2023-02-06T09:22:34.065Z,85.47
2023-02-06T09:24:38.565Z,85.95
2023-02-06T09:26:58.431Z,85.12
2023-02-06T09:29:12.603Z,85.13
2023-02-06T09:31:18.670Z,85.68
2023-02-06T09:33:22.327Z,85.74
2023-02-06T09:35:25.853Z,85.49
2023-02-06T09:37:29.118Z,85.63
2023-02-06T09:39:33.016Z,84.77
2023-02-06T09:41:41.543Z,85.66
2023-02-06T09:43:50.925Z,84.99
2023-02-06T09:46:00.927Z,85.07
2023-02-06T09:48:17.225Z,84.57
2023-02-06T09:50:27.701Z,84.68
2023-02-06T09:52:56.439Z,84.33
2023-02-06T09:55:08.434Z,84.38
2023-02-06T09:57:18.535Z,84.45
2023-02-06T09:59:27.994Z,83.91
2023-02-06T10:01:38.470Z,83.03
2023-02-06T10:04:10.160Z,83.21
2023-02-06T10:06:20.304Z,83.37
2023-02-06T10:08:30.366Z,83.26
2023-02-06T10:10:39.865Z,82.60
2023-02-06T10:12:48.351Z,82.62
2023-02-06T10:14:55.956Z,82.28
2023-02-06T10:17:10.373Z,82.05
2023-02-06T10:19:25.287Z,81.43
2023-02-06T10:21:32.615Z,81.70
2023-02-06T10:23:42.444Z,81.15
2023-02-06T10:25:49.841Z,81.13
2023-02-06T10:27:58.192Z,80.55
2023-02-06T10:30:02.060Z,80.98
2023-02-06T10:32:23.497Z,81.11
2023-02-06T10:34:40.294Z,80.79
2023-02-06T10:36:57.432Z,80.77
2023-02-06T10:39:20.432Z,81.37
2023-02-06T10:41:36.537Z,81.22
2023-02-06T10:43:47.986Z,81.00
2023-02-06T10:45:57.493Z,80.84
2023-02-06T10:48:09.783Z,79.46
2023-02-06T10:50:25.758Z,79.65
2023-02-06T10:52:34.055Z,79.27
2023-02-06T10:54:40.854Z,79.12
2023-02-06T10:56:47.143Z,79.04
2023-02-06T10:58:54.415Z,78.72
2023-02-06T11:01:00.537Z,78.30
2023-02-06T11:03:08.775Z,78.72
2023-02-06T11:05:17.394Z,78.83
2023-02-06T11:07:26.846Z,78.60
2023-02-06T11:09:30.683Z,78.70
2023-02-06T11:11:39.185Z,78.66
2023-02-06T11:13:42.868Z,78.85
2023-02-06T11:15:55.181Z,78.65
2023-02-06T11:17:58.504Z,78.72
2023-02-06T11:20:17.204Z,78.28
2023-02-06T11:22:29.468Z,78.19
2023-02-06T11:24:32.847Z,76.93
2023-02-06T11:26:42.381Z,75.89
2023-02-06T11:28:53.054Z,74.63
2023-02-06T11:30:58.904Z,74.12
2023-02-06T11:33:06.309Z,74.58
2023-02-06T11:35:25.444Z,74.77
2023-02-06T11:37:34.800Z,75.29
2023-02-06T11:39:40.270Z,74.64
2023-02-06T11:41:58.624Z,74.23
2023-02-06T11:44:06.427Z,74.42
2023-02-06T11:46:16.285Z,73.77
2023-02-06T11:48:35.425Z,74.12
2023-02-06T11:50:41.203Z,73.52
2023-02-06T11:52:47.406Z,73.22
2023-02-06T11:54:56.402Z,73.15
2023-02-06T11:57:04.471Z,73.69
2023-02-06T11:59:17.390Z,74.06
2023-02-06T12:01:22.923Z,74.27
2023-02-06T12:03:30.995Z,74.46
2023-02-06T12:05:40.411Z,74.33
2023-02-06T12:07:50.944Z,75.13
2023-02-06T12:09:54.331Z,75.35
2023-02-06T12:12:03.255Z,75.43
2023-02-06T12:14:12.539Z,75.57
2023-02-06T12:16:16.232Z,76.35
2023-02-06T12:18:23.194Z,77.13
2023-02-06T12:20:29.916Z,76.96
2023-02-06T12:22:40.306Z,75.11
2023-02-06T12:24:47.573Z,73.03
2023-02-06T12:26:52.147Z,72.15
2023-02-06T12:29:00.254Z,71.75
2023-02-06T12:31:09.218Z,69.89
2023-02-06T12:33:17.113Z,69.44
2023-02-06T12:35:29.930Z,68.93
2023-02-06T12:37:40.576Z,69.79
2023-02-06T12:39:45.527Z,69.80
2023-02-06T12:42:07.584Z,70.09
2023-02-06T12:44:21.305Z,70.55
2023-02-06T12:46:27.462Z,70.71
2023-02-06T12:48:39.224Z,71.44
2023-02-06T12:50:47.556Z,72.45
2023-02-06T12:52:54.722Z,72.91
2023-02-06T12:55:08.660Z,72.81
2023-02-06T12:57:17.217Z,73.21
2023-02-06T12:59:57.140Z,73.23
2023-02-06T13:02:16.806Z,73.11
2023-02-06T13:04:24.571Z,73.57
2023-02-06T13:06:31.004Z,73.59
2023-02-06T13:08:41.868Z,74.18
2023-02-06T13:10:49.925Z,74.19
2023-02-06T13:12:58.483Z,74.39
2023-02-06T13:15:05.825Z,74.73
2023-02-06T13:17:11.861Z,74.81
2023-02-06T13:19:31.690Z,74.90
2023-02-06T13:21:36.737Z,74.77
2023-02-06T13:23:50.321Z,75.89
2023-02-06T13:25:55.067Z,76.15
2023-02-06T13:28:00.962Z,76.28
2023-02-06T13:30:38.390Z,76.67
2023-02-06T13:32:46.272Z,76.50
2023-02-06T13:34:57.170Z,76.63
2023-02-06T13:37:21.167Z,77.14
2023-02-06T13:39:33.657Z,77.09
2023-02-06T13:41:38.376Z,77.31
2023-02-06T13:43:45.268Z,77.41
2023-02-06T13:45:53.210Z,77.69
2023-02-06T13:48:30.256Z,78.16
2023-02-06T13:50:50.712Z,78.75
2023-02-06T13:53:06.859Z,79.08
2023-02-06T13:55:25.513Z,79.36
2023-02-06T13:58:00.065Z,79.36
2023-02-06T14:00:11.132Z,79.11
2023-02-06T14:02:21.081Z,78.96
2023-02-06T14:04:31.163Z,78.90
2023-02-06T14:06:45.640Z,79.04
2023-02-06T14:09:00.388Z,79.54
2023-02-06T14:11:20.760Z,79.20
2023-02-06T14:13:38.348Z,79.58
2023-02-06T14:15:50.310Z,79.31
2023-02-06T14:18:13.489Z,79.64
2023-02-06T14:20:28.495Z,79.03
2023-02-06T14:22:39.392Z,79.17
2023-02-06T14:25:05.374Z,79.17
2023-02-06T14:27:28.300Z,79.23
2023-02-06T14:29:42.934Z,79.60
2023-02-06T14:32:11.044Z,79.74
2023-02-06T14:34:38.198Z,79.89
2023-02-06T14:36:58.447Z,80.09
2023-02-06T14:39:30.958Z,79.97
2023-02-06T14:41:39.560Z,79.93
2023-02-06T14:43:45.790Z,80.23
2023-02-06T14:46:05.571Z,80.07
2023-02-06T14:48:21.102Z,80.12
2023-02-06T14:50:27.690Z,80.01
2023-02-06T14:52:33.312Z,80.08
2023-02-06T14:54:39.175Z,79.76
2023-02-06T14:56:44.069Z,79.66
2023-02-06T14:58:48.114Z,79.93
2023-02-06T15:00:51.514Z,79.83
2023-02-06T15:03:07.977Z,79.61
2023-02-06T15:05:25.932Z,80.02
2023-02-06T15:07:31.806Z,79.94
2023-02-06T15:09:37.947Z,79.97
2023-02-06T15:11:42.755Z,80.09
2023-02-06T15:13:51.056Z,80.25
2023-02-06T15:15:57.117Z,80.40
2023-02-06T15:18:02.620Z,80.51
2023-02-06T15:20:40.221Z,80.84
2023-02-06T15:22:43.653Z,80.71
2023-02-06T15:25:12.328Z,80.95
2023-02-06T15:27:25.023Z,81.14
2023-02-06T15:29:29.230Z,80.97
2023-02-06T15:31:32.950Z,81.08
2023-02-06T15:33:39.674Z,81.34
2023-02-06T15:35:52.893Z,81.34
2023-02-06T15:37:57.189Z,81.49
2023-02-06T15:40:05.726Z,81.69
2023-02-06T15:42:10.898Z,81.83
2023-02-06T15:44:24.811Z,81.92
2023-02-06T15:46:30.390Z,81.62
2023-02-06T15:48:37.941Z,81.83
2023-02-06T15:50:41.654Z,81.92
2023-02-06T15:52:47.341Z,82.00
2023-02-06T15:55:00.184Z,82.29
2023-02-06T15:57:06.670Z,82.42
2023-02-06T15:59:20.418Z,82.38
2023-02-06T16:01:23.917Z,82.36
2023-02-06T16:03:29.737Z,82.37
2023-02-06T16:05:35.707Z,82.39
2023-02-06T16:07:49.270Z,82.71
2023-02-06T16:09:56.425Z,82.72
2023-02-06T16:11:59.958Z,82.79
2023-02-06T16:14:03.633Z,82.96
2023-02-06T16:16:22.081Z,83.12
2023-02-06T16:18:30.636Z,83.25
2023-02-06T16:20:39.622Z,83.22
2023-02-06T16:22:43.402Z,83.20
2023-02-06T16:24:47.396Z,83.24
2023-02-06T16:26:52.245Z,83.33
2023-02-06T16:28:59.355Z,83.36
2023-02-06T16:31:05.655Z,83.35
2023-02-06T16:33:25.565Z,83.64
2023-02-06T16:35:30.231Z,83.56
2023-02-06T16:37:33.591Z,83.41
2023-02-06T16:39:37.076Z,83.22
2023-02-06T16:41:43.107Z,83.35
2023-02-06T16:43:46.486Z,83.63
2023-02-06T16:45:50.560Z,83.57
2023-02-06T16:47:54.899Z,83.60
2023-02-06T16:49:59.754Z,83.74
2023-02-06T16:52:03.201Z,83.63
2023-02-06T16:54:07.841Z,83.59
2023-02-06T16:56:12.877Z,83.59
2023-02-06T16:58:19.890Z,83.69
2023-02-06T17:00:25.667Z,83.57
2023-02-06T17:02:29.514Z,84.00
2023-02-06T17:04:33.031Z,83.64
2023-02-06T17:06:38.139Z,83.53
2023-02-06T17:08:41.548Z,83.34
2023-02-06T17:10:45.783Z,83.61
2023-02-06T17:12:50.406Z,83.79
2023-02-06T17:14:53.965Z,83.43
2023-02-06T17:16:57.383Z,83.31
2023-02-06T17:19:00.817Z,82.93
2023-02-06T17:21:04.240Z,83.14
2023-02-06T17:23:10.592Z,83.11
2023-02-06T17:25:16.440Z,82.97
2023-02-06T17:27:22.569Z,83.14
2023-02-06T17:29:26.164Z,82.90
2023-02-06T17:31:29.693Z,82.60
2023-02-06T17:33:33.113Z,82.75
2023-02-06T17:35:38.110Z,82.77
2023-02-06T17:37:44.632Z,82.33
2023-02-06T17:39:50.384Z,82.32
2023-02-06T17:41:54.012Z,82.10
2023-02-06T17:44:00.268Z,81.99
2023-02-06T17:46:03.690Z,81.80
2023-02-06T17:48:08.044Z,81.69
2023-02-06T17:50:13.961Z,81.39
2023-02-06T17:52:17.613Z,81.62
2023-02-06T17:54:23.802Z,81.43
2023-02-06T17:56:28.844Z,81.25
2023-02-06T17:58:32.183Z,81.02
2023-02-06T18:00:35.936Z,80.96
2023-02-06T18:02:39.742Z,80.76
2023-02-06T18:04:43.322Z,81.09
2023-02-06T18:06:46.647Z,81.16
2023-02-06T18:08:50.088Z,80.90
2023-02-06T18:10:53.358Z,80.95
2023-02-06T18:12:58.352Z,80.97
2023-02-06T18:15:01.819Z,80.97
2023-02-06T18:17:05.229Z,80.71
2023-02-06T18:19:08.554Z,80.58
2023-02-06T18:21:12.040Z,80.64
2023-02-06T18:23:16.101Z,80.82
2023-02-06T18:25:19.798Z,80.83
2023-02-06T18:27:23.235Z,80.66
2023-02-06T18:29:34.653Z,80.59
2023-02-06T18:31:49.961Z,80.61
2023-02-06T18:33:54.074Z,80.55
2023-02-06T18:35:57.795Z,80.60
2023-02-06T18:38:01.473Z,80.58
2023-02-06T18:40:05.357Z,80.48
2023-02-06T18:42:29.366Z,80.62
2023-02-06T18:44:41.517Z,80.49
2023-02-06T18:46:45.268Z,80.30
2023-02-06T18:48:48.753Z,80.39
2023-02-06T18:50:52.373Z,80.36
2023-02-06T18:52:55.788Z,80.44
2023-02-06T18:54:59.163Z,80.12
2023-02-06T18:57:03.376Z,80.24
2023-02-06T18:59:07.242Z,79.86
2023-02-06T19:01:17.915Z,79.89
2023-02-06T19:03:22.152Z,79.64
2023-02-06T19:05:25.707Z,79.15
2023-02-06T19:07:29.104Z,79.28
2023-02-06T19:09:32.426Z,78.87
2023-02-06T19:11:36.633Z,79.00
2023-02-06T19:13:40.654Z,78.80
2023-02-06T19:15:44.158Z,78.39
2023-02-06T19:17:50.184Z,78.13
2023-02-06T19:19:53.984Z,77.87
2023-02-06T19:21:59.292Z,77.29
2023-02-06T19:24:02.766Z,77.41
2023-02-06T19:26:07.239Z,77.27
2023-02-06T19:28:10.609Z,76.83
2023-02-06T19:30:14.302Z,76.62
2023-02-06T19:32:17.764Z,76.50
2023-02-06T19:34:22.527Z,76.37
2023-02-06T19:36:27.512Z,76.09
2023-02-06T19:38:31.622Z,76.00
2023-02-06T19:40:36.257Z,75.87
2023-02-06T19:42:40.466Z,75.65
2023-02-06T19:44:47.026Z,75.62
2023-02-06T19:46:50.380Z,75.41
2023-02-06T19:48:55.291Z,75.37
2023-02-06T19:51:04.813Z,74.75
2023-02-06T19:53:08.612Z,75.04
2023-02-06T19:55:12.373Z,74.71
2023-02-06T19:57:15.976Z,74.45
2023-02-06T19:59:21.275Z,74.70
2023-02-06T20:01:25.665Z,74.57
2023-02-06T20:03:29.203Z,74.65
2023-02-06T20:05:34.133Z,74.26
2023-02-06T20:07:38.865Z,74.65
2023-02-06T20:09:42.684Z,74.61
2023-02-06T20:11:46.128Z,74.42
2023-02-06T20:13:51.987Z,74.26
2023-02-06T20:15:57.382Z,73.84
2023-02-06T20:18:00.799Z,74.35
2023-02-06T20:20:04.630Z,74.14
2023-02-06T20:22:07.993Z,73.88
2023-02-06T20:24:15.339Z,74.17
2023-02-06T20:26:21.232Z,73.72
2023-02-06T20:28:25.227Z,74.23
2023-02-06T20:30:30.979Z,73.63
2023-02-06T20:32:34.508Z,73.82
2023-02-06T20:34:38.015Z,73.94
2023-02-06T20:36:42.662Z,74.59
2023-02-06T20:38:49.237Z,74.19
2023-02-06T20:40:54.003Z,73.88
2023-02-06T20:42:57.624Z,74.03
2023-02-06T20:45:01.078Z,78.12
2023-02-06T20:47:04.437Z,76.67
2023-02-06T20:49:13.218Z,76.11
2023-02-06T20:51:16.612Z,76.46
2023-02-06T20:53:19.974Z,75.80
2023-02-06T20:55:23.653Z,76.32
2023-02-06T20:57:30.459Z,75.56
2023-02-06T20:59:34.107Z,75.82
2023-02-06T21:01:37.673Z,75.02
2023-02-06T21:03:43.082Z,75.31
2023-02-06T21:05:55.858Z,75.07
2023-02-06T21:07:59.803Z,75.29
2023-02-06T21:10:04.544Z,75.03
2023-02-06T21:12:08.210Z,75.57
2023-02-06T21:14:13.785Z,74.82
2023-02-06T21:16:17.310Z,75.47
2023-02-06T21:18:22.138Z,75.33
2023-02-06T21:20:25.667Z,75.20
2023-02-06T21:22:29.014Z,75.34
2023-02-06T21:24:32.474Z,75.41
2023-02-06T21:26:36.685Z,75.04
2023-02-06T21:28:41.426Z,75.39
2023-02-06T21:30:46.501Z,75.43
2023-02-06T21:32:50.089Z,75.93
2023-02-06T21:34:53.470Z,75.78
2023-02-06T21:36:56.816Z,76.38
2023-02-06T21:39:02.727Z,76.38
2023-02-06T21:41:06.839Z,75.81
2023-02-06T21:43:10.404Z,76.48
2023-02-06T21:45:13.745Z,75.44
2023-02-06T21:47:18.541Z,75.98
2023-02-06T21:49:23.216Z,75.48
2023-02-06T21:51:26.862Z,76.30
2023-02-06T21:53:30.167Z,75.19
2023-02-06T21:55:33.605Z,75.87
2023-02-06T21:57:37.234Z,75.86
2023-02-06T21:59:41.998Z,75.92
2023-02-06T22:01:46.178Z,75.95
2023-02-06T22:03:51.511Z,75.45
2023-02-06T22:05:55.866Z,75.41
2023-02-06T22:07:59.255Z,75.90
2023-02-06T22:10:02.980Z,76.50
2023-02-06T22:12:07.380Z,76.04
2023-02-06T22:14:13.415Z,76.41
2023-02-06T22:16:19.795Z,76.09
2023-02-06T22:18:23.152Z,75.80
2023-02-06T22:20:28.185Z,76.16
2023-02-06T22:22:31.549Z,75.70
2023-02-06T22:24:34.946Z,76.22
2023-02-06T22:26:39.550Z,76.73
2023-02-06T22:28:42.978Z,76.43
2023-02-06T22:30:47.536Z,76.43
2023-02-06T22:32:53.031Z,76.22
2023-02-06T22:35:00.058Z,75.95
2023-02-06T22:37:04.788Z,76.17
2023-02-06T22:39:09.762Z,76.31
2023-02-06T22:41:15.798Z,76.00
2023-02-06T22:43:19.215Z,76.35
2023-02-06T22:45:22.882Z,76.11
2023-02-06T22:47:26.386Z,75.57
2023-02-06T22:49:30.087Z,76.11
2023-02-06T22:51:33.579Z,75.69
2023-02-06T22:53:38.248Z,75.47
2023-02-06T22:55:59.287Z,75.82
2023-02-06T22:58:02.693Z,76.26
2023-02-06T23:00:11.531Z,76.35
2023-02-06T23:02:18.743Z,76.23
2023-02-06T23:04:24.218Z,77.06
2023-02-06T23:06:30.008Z,75.92
2023-02-06T23:08:33.569Z,76.27
2023-02-06T23:10:38.247Z,76.44
2023-02-06T23:12:41.738Z,76.80
2023-02-06T23:14:45.073Z,76.58
2023-02-06T23:16:49.140Z,76.60
2023-02-06T23:18:52.768Z,76.42
2023-02-06T23:20:56.502Z,76.13
2023-02-06T23:22:59.824Z,76.15
2023-02-06T23:25:03.171Z,76.59
2023-02-06T23:27:07.801Z,76.23
2023-02-06T23:29:17.158Z,76.33
2023-02-06T23:31:20.836Z,76.97
2023-02-06T23:33:24.610Z,76.92
2023-02-06T23:35:28.003Z,76.99
2023-02-06T23:37:31.838Z,76.30
2023-02-06T23:39:35.173Z,76.63
2023-02-06T23:41:38.725Z,76.49
2023-02-06T23:43:44.583Z,76.47
2023-02-06T23:45:47.961Z,76.61
2023-02-06T23:47:51.948Z,76.92
2023-02-06T23:49:55.279Z,76.39
2023-02-06T23:52:01.362Z,76.36
2023-02-06T23:54:05.599Z,76.90
2023-02-06T23:56:12.848Z,76.13
2023-02-06T23:58:16.370Z,76.92
